sensor_id;sensor_type;location;lat;lon;timestamp;temperature;humidity
57753;DHT22;43583;53.132;6.574;2022-08-19T00:00:01;13.80;99.90
57753;DHT22;43583;53.132;6.574;2022-08-19T00:02:26;13.90;99.90
57753;DHT22;43583;53.132;6.574;2022-08-19T00:04:52;13.80;99.90
57753;DHT22;43583;53.132;6.574;2022-08-19T00:07:20;13.70;99.90
57753;DHT22;43583;53.132;6.574;2022-08-19T00:09:46;13.70;99.90
57753;DHT22;43583;53.132;6.574;2022-08-19T00:12:12;13.60;99.90
57753;DHT22;43583;53.132;6.574;2022-08-19T00:14:38;13.60;99.90
57753;DHT22;43583;53.132;6.574;2022-08-19T00:17:08;13.60;99.90
57753;DHT22;43583;53.132;6.574;2022-08-19T00:19:34;13.60;99.90
57753;DHT22;43583;53.132;6.574;2022-08-19T00:22:00;13.50;99.90
57753;DHT22;43583;53.132;6.574;2022-08-19T00:24:28;13.50;99.90
57753;DHT22;43583;53.132;6.574;2022-08-19T00:26:55;13.60;99.90
57753;DHT22;43583;53.132;6.574;2022-08-19T00:29:23;13.50;99.90
57753;DHT22;43583;53.132;6.574;2022-08-19T00:31:49;13.50;99.90
57753;DHT22;43583;53.132;6.574;2022-08-19T00:34:18;13.50;99.90
57753;DHT22;43583;53.132;6.574;2022-08-19T00:36:44;13.60;99.90
57753;DHT22;43583;53.132;6.574;2022-08-19T00:39:10;13.60;99.90
57753;DHT22;43583;53.132;6.574;2022-08-19T00:41:37;13.50;99.90
57753;DHT22;43583;53.132;6.574;2022-08-19T00:44:15;13.50;99.90
57753;DHT22;43583;53.132;6.574;2022-08-19T00:46:44;13.40;99.90
57753;DHT22;43583;53.132;6.574;2022-08-19T00:49:27;13.40;99.90
57753;DHT22;43583;53.132;6.574;2022-08-19T00:52:01;13.30;99.90
57753;DHT22;43583;53.132;6.574;2022-08-19T00:54:28;13.30;99.90
57753;DHT22;43583;53.132;6.574;2022-08-19T00:56:54;13.30;99.90
57753;DHT22;43583;53.132;6.574;2022-08-19T00:59:20;13.30;99.90
57753;DHT22;43583;53.132;6.574;2022-08-19T01:01:46;13.20;99.90
57753;DHT22;43583;53.132;6.574;2022-08-19T01:04:12;13.20;99.90
57753;DHT22;43583;53.132;6.574;2022-08-19T01:06:39;13.20;99.90
57753;DHT22;43583;53.132;6.574;2022-08-19T01:09:06;13.10;99.90
57753;DHT22;43583;53.132;6.574;2022-08-19T01:11:36;13.10;99.90
57753;DHT22;43583;53.132;6.574;2022-08-19T01:14:03;13.10;99.90
57753;DHT22;43583;53.132;6.574;2022-08-19T01:16:32;13.10;99.90
57753;DHT22;43583;53.132;6.574;2022-08-19T01:18:59;13.00;99.90
57753;DHT22;43583;53.132;6.574;2022-08-19T01:21:27;13.00;99.90
57753;DHT22;43583;53.132;6.574;2022-08-19T01:23:53;13.00;99.90
57753;DHT22;43583;53.132;6.574;2022-08-19T01:26:21;12.90;99.90
57753;DHT22;43583;53.132;6.574;2022-08-19T01:28:49;12.90;99.90
57753;DHT22;43583;53.132;6.574;2022-08-19T01:31:20;12.90;99.90
57753;DHT22;43583;53.132;6.574;2022-08-19T01:33:47;12.90;99.90
57753;DHT22;43583;53.132;6.574;2022-08-19T01:36:20;12.90;99.90
57753;DHT22;43583;53.132;6.574;2022-08-19T01:38:47;12.90;99.90
57753;DHT22;43583;53.132;6.574;2022-08-19T01:41:13;12.90;99.90
57753;DHT22;43583;53.132;6.574;2022-08-19T01:43:40;12.90;99.90
57753;DHT22;43583;53.132;6.574;2022-08-19T01:46:05;12.80;99.90
57753;DHT22;43583;53.132;6.574;2022-08-19T01:48:40;12.80;99.90
57753;DHT22;43583;53.132;6.574;2022-08-19T01:51:07;12.80;99.90
57753;DHT22;43583;53.132;6.574;2022-08-19T01:53:33;12.80;99.90
57753;DHT22;43583;53.132;6.574;2022-08-19T01:55:59;12.70;99.90
57753;DHT22;43583;53.132;6.574;2022-08-19T01:58:30;12.70;99.90
57753;DHT22;43583;53.132;6.574;2022-08-19T02:00:57;12.70;99.90
57753;DHT22;43583;53.132;6.574;2022-08-19T02:03:23;12.60;99.90
57753;DHT22;43583;53.132;6.574;2022-08-19T02:05:58;12.60;99.90
57753;DHT22;43583;53.132;6.574;2022-08-19T02:08:28;12.60;99.90
57753;DHT22;43583;53.132;6.574;2022-08-19T02:10:54;12.60;99.90
57753;DHT22;43583;53.132;6.574;2022-08-19T02:13:20;12.60;99.90
57753;DHT22;43583;53.132;6.574;2022-08-19T02:15:46;12.60;99.90
57753;DHT22;43583;53.132;6.574;2022-08-19T02:18:12;12.50;99.90
57753;DHT22;43583;53.132;6.574;2022-08-19T02:20:39;12.50;99.90
57753;DHT22;43583;53.132;6.574;2022-08-19T02:23:05;12.50;99.90
57753;DHT22;43583;53.132;6.574;2022-08-19T02:25:31;12.50;99.90
57753;DHT22;43583;53.132;6.574;2022-08-19T02:27:56;12.50;99.90
57753;DHT22;43583;53.132;6.574;2022-08-19T02:30:22;12.50;99.90
57753;DHT22;43583;53.132;6.574;2022-08-19T02:32:49;12.50;99.90
57753;DHT22;43583;53.132;6.574;2022-08-19T02:35:16;12.50;99.90
57753;DHT22;43583;53.132;6.574;2022-08-19T02:37:42;12.50;99.90
57753;DHT22;43583;53.132;6.574;2022-08-19T02:40:28;12.50;99.90
57753;DHT22;43583;53.132;6.574;2022-08-19T02:42:55;12.50;99.90
57753;DHT22;43583;53.132;6.574;2022-08-19T02:45:20;12.50;99.90
57753;DHT22;43583;53.132;6.574;2022-08-19T02:47:46;12.50;99.90
57753;DHT22;43583;53.132;6.574;2022-08-19T02:50:12;12.50;99.90
57753;DHT22;43583;53.132;6.574;2022-08-19T02:52:38;12.50;99.90
57753;DHT22;43583;53.132;6.574;2022-08-19T02:55:04;12.50;99.90
57753;DHT22;43583;53.132;6.574;2022-08-19T02:57:30;12.50;99.90
57753;DHT22;43583;53.132;6.574;2022-08-19T02:59:59;12.50;99.90
57753;DHT22;43583;53.132;6.574;2022-08-19T03:02:26;12.50;99.90
57753;DHT22;43583;53.132;6.574;2022-08-19T03:04:52;12.50;99.90
57753;DHT22;43583;53.132;6.574;2022-08-19T03:07:18;12.50;99.90
57753;DHT22;43583;53.132;6.574;2022-08-19T03:09:44;12.50;99.90
57753;DHT22;43583;53.132;6.574;2022-08-19T03:12:10;12.50;99.90
57753;DHT22;43583;53.132;6.574;2022-08-19T03:14:36;12.50;99.90
57753;DHT22;43583;53.132;6.574;2022-08-19T03:17:03;12.50;99.90
57753;DHT22;43583;53.132;6.574;2022-08-19T03:19:30;12.40;99.90
57753;DHT22;43583;53.132;6.574;2022-08-19T03:21:56;12.40;99.90
57753;DHT22;43583;53.132;6.574;2022-08-19T03:24:23;12.40;99.90
57753;DHT22;43583;53.132;6.574;2022-08-19T03:26:52;12.40;99.90
57753;DHT22;43583;53.132;6.574;2022-08-19T03:29:20;12.40;99.90
57753;DHT22;43583;53.132;6.574;2022-08-19T03:31:45;12.40;99.90
57753;DHT22;43583;53.132;6.574;2022-08-19T03:34:14;12.40;99.90
57753;DHT22;43583;53.132;6.574;2022-08-19T03:36:40;12.40;99.90
57753;DHT22;43583;53.132;6.574;2022-08-19T03:39:05;12.40;99.90
57753;DHT22;43583;53.132;6.574;2022-08-19T03:41:35;12.30;99.90
57753;DHT22;43583;53.132;6.574;2022-08-19T03:44:02;12.30;99.90
57753;DHT22;43583;53.132;6.574;2022-08-19T03:46:31;12.30;99.90
57753;DHT22;43583;53.132;6.574;2022-08-19T03:48:59;12.20;99.90
57753;DHT22;43583;53.132;6.574;2022-08-19T03:51:27;12.20;99.90
57753;DHT22;43583;53.132;6.574;2022-08-19T03:53:54;12.20;99.90
57753;DHT22;43583;53.132;6.574;2022-08-19T03:56:21;12.20;99.90
57753;DHT22;43583;53.132;6.574;2022-08-19T03:58:47;12.20;99.90
57753;DHT22;43583;53.132;6.574;2022-08-19T04:01:20;12.20;99.90
57753;DHT22;43583;53.132;6.574;2022-08-19T04:03:46;12.20;99.90
57753;DHT22;43583;53.132;6.574;2022-08-19T04:06:18;12.20;99.90
57753;DHT22;43583;53.132;6.574;2022-08-19T04:08:48;12.20;99.90
57753;DHT22;43583;53.132;6.574;2022-08-19T04:11:15;12.20;99.90
57753;DHT22;43583;53.132;6.574;2022-08-19T04:13:41;12.20;99.90
57753;DHT22;43583;53.132;6.574;2022-08-19T04:16:10;12.20;99.90
57753;DHT22;43583;53.132;6.574;2022-08-19T04:18:38;12.20;99.90
57753;DHT22;43583;53.132;6.574;2022-08-19T04:21:04;12.30;99.90
57753;DHT22;43583;53.132;6.574;2022-08-19T04:23:31;12.30;99.90
57753;DHT22;43583;53.132;6.574;2022-08-19T04:25:57;12.30;99.90
57753;DHT22;43583;53.132;6.574;2022-08-19T04:28:23;12.30;99.90
57753;DHT22;43583;53.132;6.574;2022-08-19T04:30:53;12.30;99.90
57753;DHT22;43583;53.132;6.574;2022-08-19T04:33:23;12.30;99.90
57753;DHT22;43583;53.132;6.574;2022-08-19T04:35:51;12.30;99.90
57753;DHT22;43583;53.132;6.574;2022-08-19T04:38:19;12.40;99.90
57753;DHT22;43583;53.132;6.574;2022-08-19T04:40:49;12.40;99.90
57753;DHT22;43583;53.132;6.574;2022-08-19T04:43:35;12.40;99.90
57753;DHT22;43583;53.132;6.574;2022-08-19T04:46:05;12.40;99.90
57753;DHT22;43583;53.132;6.574;2022-08-19T04:48:31;12.40;99.90
57753;DHT22;43583;53.132;6.574;2022-08-19T04:50:58;12.30;99.90
57753;DHT22;43583;53.132;6.574;2022-08-19T04:53:29;12.40;99.90
57753;DHT22;43583;53.132;6.574;2022-08-19T04:55:59;12.40;99.90
57753;DHT22;43583;53.132;6.574;2022-08-19T04:58:27;12.40;99.90
57753;DHT22;43583;53.132;6.574;2022-08-19T05:00:53;12.50;99.90
57753;DHT22;43583;53.132;6.574;2022-08-19T05:03:19;12.50;99.90
57753;DHT22;43583;53.132;6.574;2022-08-19T05:05:47;12.60;99.90
57753;DHT22;43583;53.132;6.574;2022-08-19T05:08:18;12.70;99.90
57753;DHT22;43583;53.132;6.574;2022-08-19T05:10:49;12.90;99.90
57753;DHT22;43583;53.132;6.574;2022-08-19T05:13:16;13.00;99.90
57753;DHT22;43583;53.132;6.574;2022-08-19T05:15:43;13.10;99.90
57753;DHT22;43583;53.132;6.574;2022-08-19T05:18:09;13.20;99.90
57753;DHT22;43583;53.132;6.574;2022-08-19T05:20:53;13.40;99.90
57753;DHT22;43583;53.132;6.574;2022-08-19T05:23:38;13.60;99.90
57753;DHT22;43583;53.132;6.574;2022-08-19T05:26:04;13.80;99.90
57753;DHT22;43583;53.132;6.574;2022-08-19T05:28:30;14.10;99.90
57753;DHT22;43583;53.132;6.574;2022-08-19T05:30:55;14.60;99.90
57753;DHT22;43583;53.132;6.574;2022-08-19T05:33:22;15.50;99.90
57753;DHT22;43583;53.132;6.574;2022-08-19T05:35:48;16.50;99.90
57753;DHT22;43583;53.132;6.574;2022-08-19T05:38:15;17.50;99.90
57753;DHT22;43583;53.132;6.574;2022-08-19T05:40:42;18.50;99.90
57753;DHT22;43583;53.132;6.574;2022-08-19T05:43:15;19.50;99.90
57753;DHT22;43583;53.132;6.574;2022-08-19T05:45:43;20.50;99.90
57753;DHT22;43583;53.132;6.574;2022-08-19T05:48:11;21.50;99.90
57753;DHT22;43583;53.132;6.574;2022-08-19T05:50:40;22.30;99.90
57753;DHT22;43583;53.132;6.574;2022-08-19T05:53:06;23.10;99.90
57753;DHT22;43583;53.132;6.574;2022-08-19T05:55:32;23.80;99.90
57753;DHT22;43583;53.132;6.574;2022-08-19T05:57:58;24.60;99.90
57753;DHT22;43583;53.132;6.574;2022-08-19T06:00:23;25.30;99.90
57753;DHT22;43583;53.132;6.574;2022-08-19T06:02:49;25.80;99.90
57753;DHT22;43583;53.132;6.574;2022-08-19T06:05:16;26.30;99.90
57753;DHT22;43583;53.132;6.574;2022-08-19T06:07:41;27.00;99.90
57753;DHT22;43583;53.132;6.574;2022-08-19T06:10:09;27.50;99.90
57753;DHT22;43583;53.132;6.574;2022-08-19T06:12:35;28.00;99.90
57753;DHT22;43583;53.132;6.574;2022-08-19T06:15:10;28.50;99.90
57753;DHT22;43583;53.132;6.574;2022-08-19T06:17:36;28.90;99.00
57753;DHT22;43583;53.132;6.574;2022-08-19T06:20:08;29.30;98.10
57753;DHT22;43583;53.132;6.574;2022-08-19T06:22:39;29.40;94.20
57753;DHT22;43583;53.132;6.574;2022-08-19T06:25:05;29.80;93.00
57753;DHT22;43583;53.132;6.574;2022-08-19T06:27:31;30.00;91.60
57753;DHT22;43583;53.132;6.574;2022-08-19T06:29:58;30.40;91.10
57753;DHT22;43583;53.132;6.574;2022-08-19T06:32:23;30.60;88.40
57753;DHT22;43583;53.132;6.574;2022-08-19T06:34:49;31.00;88.20
57753;DHT22;43583;53.132;6.574;2022-08-19T06:37:15;31.30;86.20
57753;DHT22;43583;53.132;6.574;2022-08-19T06:39:42;31.60;84.40
57753;DHT22;43583;53.132;6.574;2022-08-19T06:42:09;32.00;83.20
57753;DHT22;43583;53.132;6.574;2022-08-19T06:44:40;32.20;81.20
57753;DHT22;43583;53.132;6.574;2022-08-19T06:47:08;32.50;80.40
57753;DHT22;43583;53.132;6.574;2022-08-19T06:49:34;32.70;79.00
57753;DHT22;43583;53.132;6.574;2022-08-19T06:52:00;32.90;77.70
57753;DHT22;43583;53.132;6.574;2022-08-19T06:54:27;33.10;76.50
57753;DHT22;43583;53.132;6.574;2022-08-19T06:56:55;33.30;75.10
57753;DHT22;43583;53.132;6.574;2022-08-19T06:59:23;33.50;73.60
57753;DHT22;43583;53.132;6.574;2022-08-19T07:01:53;33.70;72.90
57753;DHT22;43583;53.132;6.574;2022-08-19T07:04:28;33.80;71.40
57753;DHT22;43583;53.132;6.574;2022-08-19T07:07:06;34.20;70.50
57753;DHT22;43583;53.132;6.574;2022-08-19T07:09:34;34.40;69.80
57753;DHT22;43583;53.132;6.574;2022-08-19T07:12:03;34.50;68.30
57753;DHT22;43583;53.132;6.574;2022-08-19T07:14:29;34.90;67.00
57753;DHT22;43583;53.132;6.574;2022-08-19T07:16:56;35.10;66.10
57753;DHT22;43583;53.132;6.574;2022-08-19T07:19:24;35.20;65.30
57753;DHT22;43583;53.132;6.574;2022-08-19T07:21:51;35.30;64.60
57753;DHT22;43583;53.132;6.574;2022-08-19T07:24:20;35.40;63.30
57753;DHT22;43583;53.132;6.574;2022-08-19T07:26:46;35.40;62.90
57753;DHT22;43583;53.132;6.574;2022-08-19T07:29:12;35.50;62.90
57753;DHT22;43583;53.132;6.574;2022-08-19T07:31:38;35.60;62.30
57753;DHT22;43583;53.132;6.574;2022-08-19T07:34:06;35.90;61.80
57753;DHT22;43583;53.132;6.574;2022-08-19T07:36:34;36.00;61.10
57753;DHT22;43583;53.132;6.574;2022-08-19T07:39:03;36.00;60.20
57753;DHT22;43583;53.132;6.574;2022-08-19T07:41:30;35.60;59.50
57753;DHT22;43583;53.132;6.574;2022-08-19T07:43:58;35.50;59.80
57753;DHT22;43583;53.132;6.574;2022-08-19T07:46:24;35.60;60.10
57753;DHT22;43583;53.132;6.574;2022-08-19T07:48:51;35.80;60.50
57753;DHT22;43583;53.132;6.574;2022-08-19T07:51:20;35.90;59.80
57753;DHT22;43583;53.132;6.574;2022-08-19T07:53:47;36.10;58.20
57753;DHT22;43583;53.132;6.574;2022-08-19T07:56:14;36.30;58.90
57753;DHT22;43583;53.132;6.574;2022-08-19T07:58:42;36.50;58.70
57753;DHT22;43583;53.132;6.574;2022-08-19T08:01:10;36.80;58.00
57753;DHT22;43583;53.132;6.574;2022-08-19T08:03:37;36.90;57.70
57753;DHT22;43583;53.132;6.574;2022-08-19T08:06:22;37.00;57.70
57753;DHT22;43583;53.132;6.574;2022-08-19T08:09:06;37.10;57.10
57753;DHT22;43583;53.132;6.574;2022-08-19T08:14:15;37.40;56.20
57753;DHT22;43583;53.132;6.574;2022-08-19T08:16:41;37.40;55.90
57753;DHT22;43583;53.132;6.574;2022-08-19T08:19:09;37.30;55.40
57753;DHT22;43583;53.132;6.574;2022-08-19T08:21:35;37.20;55.40
57753;DHT22;43583;53.132;6.574;2022-08-19T08:24:01;37.40;55.00
57753;DHT22;43583;53.132;6.574;2022-08-19T08:26:26;37.30;53.70
57753;DHT22;43583;53.132;6.574;2022-08-19T08:28:53;37.30;54.20
57753;DHT22;43583;53.132;6.574;2022-08-19T08:31:18;37.20;53.60
57753;DHT22;43583;53.132;6.574;2022-08-19T08:33:45;37.30;53.60
57753;DHT22;43583;53.132;6.574;2022-08-19T08:36:12;37.40;53.30
57753;DHT22;43583;53.132;6.574;2022-08-19T08:38:42;37.20;53.50
57753;DHT22;43583;53.132;6.574;2022-08-19T08:41:22;37.20;53.50
57753;DHT22;43583;53.132;6.574;2022-08-19T08:43:53;37.30;54.40
57753;DHT22;43583;53.132;6.574;2022-08-19T08:52:05;37.60;53.80
57753;DHT22;43583;53.132;6.574;2022-08-19T08:54:41;37.50;52.70
57753;DHT22;43583;53.132;6.574;2022-08-19T08:57:17;37.40;53.60
57753;DHT22;43583;53.132;6.574;2022-08-19T08:59:47;37.30;52.70
57753;DHT22;43583;53.132;6.574;2022-08-19T09:02:16;37.10;53.60
57753;DHT22;43583;53.132;6.574;2022-08-19T09:04:42;37.00;53.20
57753;DHT22;43583;53.132;6.574;2022-08-19T09:07:25;36.90;53.80
57753;DHT22;43583;53.132;6.574;2022-08-19T09:10:21;36.60;52.50
57753;DHT22;43583;53.132;6.574;2022-08-19T09:15:45;36.50;53.30
57753;DHT22;43583;53.132;6.574;2022-08-19T09:18:11;36.40;51.80
57753;DHT22;43583;53.132;6.574;2022-08-19T09:20:37;36.30;53.40
57753;DHT22;43583;53.132;6.574;2022-08-19T09:23:03;36.40;54.90
57753;DHT22;43583;53.132;6.574;2022-08-19T09:25:29;36.30;53.70
57753;DHT22;43583;53.132;6.574;2022-08-19T09:27:57;36.20;53.90
57753;DHT22;43583;53.132;6.574;2022-08-19T09:30:30;36.10;54.50
57753;DHT22;43583;53.132;6.574;2022-08-19T09:32:56;35.40;52.70
57753;DHT22;43583;53.132;6.574;2022-08-19T09:35:24;34.90;54.90
57753;DHT22;43583;53.132;6.574;2022-08-19T09:37:51;34.90;56.60
57753;DHT22;43583;53.132;6.574;2022-08-19T09:40:17;34.70;56.90
57753;DHT22;43583;53.132;6.574;2022-08-19T09:42:44;34.40;57.90
57753;DHT22;43583;53.132;6.574;2022-08-19T09:45:12;34.00;58.70
57753;DHT22;43583;53.132;6.574;2022-08-19T09:47:37;33.90;58.90
57753;DHT22;43583;53.132;6.574;2022-08-19T09:50:05;33.70;60.00
57753;DHT22;43583;53.132;6.574;2022-08-19T09:52:31;33.40;59.70
57753;DHT22;43583;53.132;6.574;2022-08-19T09:54:57;33.20;60.50
57753;DHT22;43583;53.132;6.574;2022-08-19T09:57:22;33.00;61.10
57753;DHT22;43583;53.132;6.574;2022-08-19T09:59:48;32.70;62.00
57753;DHT22;43583;53.132;6.574;2022-08-19T10:02:13;32.50;61.80
57753;DHT22;43583;53.132;6.574;2022-08-19T10:04:39;32.10;61.70
57753;DHT22;43583;53.132;6.574;2022-08-19T10:07:23;31.90;62.70
57753;DHT22;43583;53.132;6.574;2022-08-19T10:09:50;31.60;62.90
57753;DHT22;43583;53.132;6.574;2022-08-19T10:12:15;31.50;63.70
57753;DHT22;43583;53.132;6.574;2022-08-19T10:14:41;31.40;64.30
57753;DHT22;43583;53.132;6.574;2022-08-19T10:17:07;31.40;64.60
57753;DHT22;43583;53.132;6.574;2022-08-19T10:19:33;31.30;64.10
57753;DHT22;43583;53.132;6.574;2022-08-19T10:22:06;31.20;64.90
57753;DHT22;43583;53.132;6.574;2022-08-19T10:24:33;31.10;64.60
57753;DHT22;43583;53.132;6.574;2022-08-19T10:27:00;31.10;65.90
57753;DHT22;43583;53.132;6.574;2022-08-19T10:29:29;31.10;64.70
57753;DHT22;43583;53.132;6.574;2022-08-19T10:31:55;31.00;64.80
57753;DHT22;43583;53.132;6.574;2022-08-19T10:34:22;31.00;64.80
57753;DHT22;43583;53.132;6.574;2022-08-19T10:36:48;30.90;65.00
57753;DHT22;43583;53.132;6.574;2022-08-19T10:39:13;30.90;65.90
57753;DHT22;43583;53.132;6.574;2022-08-19T10:41:40;30.70;66.20
57753;DHT22;43583;53.132;6.574;2022-08-19T10:44:09;30.40;65.60
57753;DHT22;43583;53.132;6.574;2022-08-19T10:46:38;30.00;66.20
57753;DHT22;43583;53.132;6.574;2022-08-19T10:49:08;30.10;67.60
57753;DHT22;43583;53.132;6.574;2022-08-19T10:51:34;30.30;68.10
57753;DHT22;43583;53.132;6.574;2022-08-19T10:54:18;30.40;68.30
57753;DHT22;43583;53.132;6.574;2022-08-19T10:56:44;30.40;68.00
57753;DHT22;43583;53.132;6.574;2022-08-19T10:59:24;30.50;67.10
57753;DHT22;43583;53.132;6.574;2022-08-19T11:01:54;30.40;66.60
57753;DHT22;43583;53.132;6.574;2022-08-19T11:04:20;30.30;66.70
57753;DHT22;43583;53.132;6.574;2022-08-19T11:06:48;30.50;67.40
57753;DHT22;43583;53.132;6.574;2022-08-19T11:09:16;30.60;67.10
57753;DHT22;43583;53.132;6.574;2022-08-19T11:11:42;30.50;67.40
57753;DHT22;43583;53.132;6.574;2022-08-19T11:14:10;30.50;67.50
57753;DHT22;43583;53.132;6.574;2022-08-19T11:16:37;30.40;68.10
57753;DHT22;43583;53.132;6.574;2022-08-19T11:19:05;30.30;68.00
57753;DHT22;43583;53.132;6.574;2022-08-19T11:21:35;30.10;67.80
57753;DHT22;43583;53.132;6.574;2022-08-19T11:24:05;30.10;68.20
57753;DHT22;43583;53.132;6.574;2022-08-19T11:26:32;30.10;67.60
57753;DHT22;43583;53.132;6.574;2022-08-19T11:28:58;30.10;66.90
57753;DHT22;43583;53.132;6.574;2022-08-19T11:31:27;30.20;67.80
57753;DHT22;43583;53.132;6.574;2022-08-19T11:33:53;30.00;68.30
57753;DHT22;43583;53.132;6.574;2022-08-19T11:36:20;29.70;69.40
57753;DHT22;43583;53.132;6.574;2022-08-19T11:38:47;29.70;70.60
57753;DHT22;43583;53.132;6.574;2022-08-19T11:41:15;29.80;71.30
57753;DHT22;43583;53.132;6.574;2022-08-19T11:43:41;29.90;71.50
57753;DHT22;43583;53.132;6.574;2022-08-19T11:46:09;30.00;71.30
57753;DHT22;43583;53.132;6.574;2022-08-19T11:48:36;30.00;70.40
57753;DHT22;43583;53.132;6.574;2022-08-19T11:51:08;29.90;70.40
57753;DHT22;43583;53.132;6.574;2022-08-19T11:53:34;29.60;71.60
57753;DHT22;43583;53.132;6.574;2022-08-19T11:56:00;29.50;70.30
57753;DHT22;43583;53.132;6.574;2022-08-19T11:58:26;29.50;71.70
57753;DHT22;43583;53.132;6.574;2022-08-19T12:00:52;29.60;73.10
57753;DHT22;43583;53.132;6.574;2022-08-19T12:03:18;29.60;73.10
57753;DHT22;43583;53.132;6.574;2022-08-19T12:05:45;29.60;72.80
57753;DHT22;43583;53.132;6.574;2022-08-19T12:08:10;29.60;73.10
57753;DHT22;43583;53.132;6.574;2022-08-19T12:10:38;29.60;72.70
57753;DHT22;43583;53.132;6.574;2022-08-19T12:13:05;29.60;73.20
57753;DHT22;43583;53.132;6.574;2022-08-19T12:15:38;29.60;73.00
57753;DHT22;43583;53.132;6.574;2022-08-19T12:18:06;29.60;72.70
57753;DHT22;43583;53.132;6.574;2022-08-19T12:20:35;29.50;72.80
57753;DHT22;43583;53.132;6.574;2022-08-19T12:23:01;29.40;72.10
57753;DHT22;43583;53.132;6.574;2022-08-19T12:25:27;29.30;71.30
57753;DHT22;43583;53.132;6.574;2022-08-19T12:27:52;29.20;72.60
57753;DHT22;43583;53.132;6.574;2022-08-19T12:30:18;29.10;73.10
57753;DHT22;43583;53.132;6.574;2022-08-19T12:32:44;29.00;73.30
57753;DHT22;43583;53.132;6.574;2022-08-19T12:35:09;28.80;73.20
57753;DHT22;43583;53.132;6.574;2022-08-19T12:37:36;28.70;73.70
57753;DHT22;43583;53.132;6.574;2022-08-19T12:40:02;28.70;74.50
57753;DHT22;43583;53.132;6.574;2022-08-19T12:42:28;28.60;74.40
57753;DHT22;43583;53.132;6.574;2022-08-19T12:44:54;28.60;74.70
57753;DHT22;43583;53.132;6.574;2022-08-19T12:47:20;28.70;75.70
57753;DHT22;43583;53.132;6.574;2022-08-19T12:49:46;28.80;76.00
57753;DHT22;43583;53.132;6.574;2022-08-19T12:52:12;29.00;76.10
57753;DHT22;43583;53.132;6.574;2022-08-19T12:54:41;29.10;76.10
57753;DHT22;43583;53.132;6.574;2022-08-19T12:57:08;29.00;75.90
57753;DHT22;43583;53.132;6.574;2022-08-19T12:59:35;28.90;75.70
57753;DHT22;43583;53.132;6.574;2022-08-19T13:02:05;28.90;75.80
57753;DHT22;43583;53.132;6.574;2022-08-19T13:04:35;28.80;75.40
57753;DHT22;43583;53.132;6.574;2022-08-19T13:07:03;28.80;75.50
57753;DHT22;43583;53.132;6.574;2022-08-19T13:09:29;28.80;75.20
57753;DHT22;43583;53.132;6.574;2022-08-19T13:11:54;28.70;74.00
57753;DHT22;43583;53.132;6.574;2022-08-19T13:14:22;28.70;73.60
57753;DHT22;43583;53.132;6.574;2022-08-19T13:16:47;28.60;73.40
57753;DHT22;43583;53.132;6.574;2022-08-19T13:19:13;28.60;74.50
57753;DHT22;43583;53.132;6.574;2022-08-19T13:21:38;28.60;74.40
57753;DHT22;43583;53.132;6.574;2022-08-19T13:24:04;28.40;74.20
57753;DHT22;43583;53.132;6.574;2022-08-19T13:26:30;28.40;74.20
57753;DHT22;43583;53.132;6.574;2022-08-19T13:28:55;28.30;75.00
57753;DHT22;43583;53.132;6.574;2022-08-19T13:31:41;28.20;76.00
57753;DHT22;43583;53.132;6.574;2022-08-19T13:34:31;28.10;76.60
57753;DHT22;43583;53.132;6.574;2022-08-19T13:36:58;28.10;77.70
57753;DHT22;43583;53.132;6.574;2022-08-19T13:39:24;28.10;78.40
57753;DHT22;43583;53.132;6.574;2022-08-19T13:41:50;28.10;79.10
57753;DHT22;43583;53.132;6.574;2022-08-19T13:44:17;27.90;79.90
57753;DHT22;43583;53.132;6.574;2022-08-19T13:46:47;27.80;80.40
57753;DHT22;43583;53.132;6.574;2022-08-19T13:49:14;27.60;81.30
57753;DHT22;43583;53.132;6.574;2022-08-19T13:51:41;27.50;81.90
57753;DHT22;43583;53.132;6.574;2022-08-19T13:54:08;27.30;82.60
57753;DHT22;43583;53.132;6.574;2022-08-19T13:56:34;27.00;83.70
57753;DHT22;43583;53.132;6.574;2022-08-19T13:59:00;26.80;85.80
57753;DHT22;43583;53.132;6.574;2022-08-19T14:01:26;26.60;87.90
57753;DHT22;43583;53.132;6.574;2022-08-19T14:03:52;26.50;88.70
57753;DHT22;43583;53.132;6.574;2022-08-19T14:06:19;26.30;89.80
57753;DHT22;43583;53.132;6.574;2022-08-19T14:08:45;26.20;90.70
57753;DHT22;43583;53.132;6.574;2022-08-19T14:11:11;26.10;91.20
57753;DHT22;43583;53.132;6.574;2022-08-19T14:13:36;26.00;91.60
57753;DHT22;43583;53.132;6.574;2022-08-19T14:16:10;25.90;92.20
57753;DHT22;43583;53.132;6.574;2022-08-19T14:18:35;25.70;93.40
57753;DHT22;43583;53.132;6.574;2022-08-19T14:21:01;25.60;93.80
57753;DHT22;43583;53.132;6.574;2022-08-19T14:23:28;25.50;94.40
57753;DHT22;43583;53.132;6.574;2022-08-19T14:26:09;25.40;95.60
57753;DHT22;43583;53.132;6.574;2022-08-19T14:28:35;25.20;96.60
57753;DHT22;43583;53.132;6.574;2022-08-19T14:31:01;25.10;97.50
57753;DHT22;43583;53.132;6.574;2022-08-19T14:33:26;25.10;98.40
57753;DHT22;43583;53.132;6.574;2022-08-19T14:35:52;25.00;99.00
57753;DHT22;43583;53.132;6.574;2022-08-19T14:38:18;25.00;99.80
57753;DHT22;43583;53.132;6.574;2022-08-19T14:40:45;25.00;99.90
57753;DHT22;43583;53.132;6.574;2022-08-19T14:43:11;25.00;99.90
57753;DHT22;43583;53.132;6.574;2022-08-19T14:45:39;25.00;99.90
57753;DHT22;43583;53.132;6.574;2022-08-19T14:48:06;25.00;99.90
57753;DHT22;43583;53.132;6.574;2022-08-19T14:50:32;25.00;99.90
57753;DHT22;43583;53.132;6.574;2022-08-19T14:53:04;25.00;99.90
57753;DHT22;43583;53.132;6.574;2022-08-19T14:55:30;25.00;99.90
57753;DHT22;43583;53.132;6.574;2022-08-19T14:57:57;25.00;99.90
57753;DHT22;43583;53.132;6.574;2022-08-19T15:00:22;25.00;99.90
57753;DHT22;43583;53.132;6.574;2022-08-19T15:02:49;25.00;99.90
57753;DHT22;43583;53.132;6.574;2022-08-19T15:05:14;25.00;99.90
57753;DHT22;43583;53.132;6.574;2022-08-19T15:07:43;25.10;99.90
57753;DHT22;43583;53.132;6.574;2022-08-19T15:10:12;25.10;99.90
57753;DHT22;43583;53.132;6.574;2022-08-19T15:12:39;25.20;99.90
57753;DHT22;43583;53.132;6.574;2022-08-19T15:15:12;25.40;99.90
57753;DHT22;43583;53.132;6.574;2022-08-19T15:17:42;25.50;99.90
57753;DHT22;43583;53.132;6.574;2022-08-19T15:20:09;25.60;99.90
57753;DHT22;43583;53.132;6.574;2022-08-19T15:22:35;25.70;99.90
57753;DHT22;43583;53.132;6.574;2022-08-19T15:25:01;25.80;99.90
57753;DHT22;43583;53.132;6.574;2022-08-19T15:27:27;25.80;99.90
57753;DHT22;43583;53.132;6.574;2022-08-19T15:29:52;25.60;99.90
57753;DHT22;43583;53.132;6.574;2022-08-19T15:32:18;25.70;99.90
57753;DHT22;43583;53.132;6.574;2022-08-19T15:34:44;25.70;99.90
57753;DHT22;43583;53.132;6.574;2022-08-19T15:37:09;25.70;99.90
57753;DHT22;43583;53.132;6.574;2022-08-19T15:39:35;25.60;99.90
57753;DHT22;43583;53.132;6.574;2022-08-19T15:42:00;25.60;99.90
57753;DHT22;43583;53.132;6.574;2022-08-19T15:44:27;25.50;99.90